Qtas de Boulevar, Puerto Rico
Current Conditions -  °F | °C
As of 2:56 PM on Monday 22 Dec 2014 (Local Time) from TJSJ Reporting Station
Scattered Clouds Scattered Clouds  
Wind Chill: 84°   Ceiling: Unl
Heat Index: 90°   Visibility: 10mi
Dew Point: 73°   Wind: 20mph
Humidity: 69%   Direction: 50°NE
Pressure: 29.97"   Gusts: NA
Location:  18.1808°N, 66.1122°W
Report Text: TJSJ 221856Z 05017KT 10SM FEW034 SCT060 29/23 A2997 RMK AO2 SLP148 T02890228
Loading
Personal Weather Stations






























Interactive Weather Map New forecast layout! Learn more

10-Day Weather Forecast

Advertisements
Track Severe Weather on mobile